sensor_id;sensor_type;location;lat;lon;timestamp;P1;durP1;ratioP1;P2;durP2;ratioP2
40611;SDS011;26317;44.894;20.286;2022-07-06T00:00:26;11.88;;;9.00;;
40611;SDS011;26317;44.894;20.286;2022-07-06T00:03:08;13.52;;;10.77;;
40611;SDS011;26317;44.894;20.286;2022-07-06T00:05:47;11.57;;;10.13;;
40611;SDS011;26317;44.894;20.286;2022-07-06T00:08:27;15.45;;;11.52;;
40611;SDS011;26317;44.894;20.286;2022-07-06T00:11:18;19.42;;;11.10;;
40611;SDS011;26317;44.894;20.286;2022-07-06T00:13:50;17.98;;;10.40;;
40611;SDS011;26317;44.894;20.286;2022-07-06T00:16:30;13.45;;;10.75;;
40611;SDS011;26317;44.894;20.286;2022-07-06T00:19:03;13.18;;;10.38;;
40611;SDS011;26317;44.894;20.286;2022-07-06T00:21:34;15.02;;;10.30;;
40611;SDS011;26317;44.894;20.286;2022-07-06T00:24:08;16.20;;;9.32;;
40611;SDS011;26317;44.894;20.286;2022-07-06T00:29:35;17.13;;;9.13;;
40611;SDS011;26317;44.894;20.286;2022-07-06T00:32:10;12.05;;;9.35;;
40611;SDS011;26317;44.894;20.286;2022-07-06T00:34:43;16.50;;;8.65;;
40611;SDS011;26317;44.894;20.286;2022-07-06T00:37:13;15.05;;;9.05;;
40611;SDS011;26317;44.894;20.286;2022-07-06T00:39:45;17.38;;;9.48;;
40611;SDS011;26317;44.894;20.286;2022-07-06T00:42:21;11.77;;;8.50;;
40611;SDS011;26317;44.894;20.286;2022-07-06T00:44:51;16.40;;;10.20;;
40611;SDS011;26317;44.894;20.286;2022-07-06T00:49:53;13.75;;;8.82;;
40611;SDS011;26317;44.894;20.286;2022-07-06T00:52:43;12.48;;;8.60;;
40611;SDS011;26317;44.894;20.286;2022-07-06T00:55:22;14.07;;;8.73;;
40611;SDS011;26317;44.894;20.286;2022-07-06T00:58:00;13.23;;;8.65;;
40611;SDS011;26317;44.894;20.286;2022-07-06T01:00:36;11.93;;;8.20;;
40611;SDS011;26317;44.894;20.286;2022-07-06T01:03:12;16.15;;;9.18;;
40611;SDS011;26317;44.894;20.286;2022-07-06T01:05:47;11.30;;;9.23;;
40611;SDS011;26317;44.894;20.286;2022-07-06T01:08:33;12.55;;;9.23;;
40611;SDS011;26317;44.894;20.286;2022-07-06T01:11:09;14.43;;;9.05;;
40611;SDS011;26317;44.894;20.286;2022-07-06T01:14:07;12.13;;;8.77;;
40611;SDS011;26317;44.894;20.286;2022-07-06T01:16:43;12.15;;;9.63;;
40611;SDS011;26317;44.894;20.286;2022-07-06T01:19:16;16.17;;;9.82;;
40611;SDS011;26317;44.894;20.286;2022-07-06T01:21:59;17.60;;;10.23;;
40611;SDS011;26317;44.894;20.286;2022-07-06T01:24:35;12.55;;;9.13;;
40611;SDS011;26317;44.894;20.286;2022-07-06T01:27:06;12.57;;;9.43;;
40611;SDS011;26317;44.894;20.286;2022-07-06T01:29:36;15.00;;;8.63;;
40611;SDS011;26317;44.894;20.286;2022-07-06T01:32:13;12.05;;;9.27;;
40611;SDS011;26317;44.894;20.286;2022-07-06T01:34:55;11.93;;;9.35;;
40611;SDS011;26317;44.894;20.286;2022-07-06T01:37:28;12.85;;;9.80;;
40611;SDS011;26317;44.894;20.286;2022-07-06T01:40:02;14.45;;;8.93;;
40611;SDS011;26317;44.894;20.286;2022-07-06T01:42:40;13.38;;;8.85;;
40611;SDS011;26317;44.894;20.286;2022-07-06T01:45:12;12.77;;;9.68;;
40611;SDS011;26317;44.894;20.286;2022-07-06T01:47:52;13.30;;;9.52;;
40611;SDS011;26317;44.894;20.286;2022-07-06T01:50:45;18.23;;;9.55;;
40611;SDS011;26317;44.894;20.286;2022-07-06T01:53:34;15.27;;;9.07;;
40611;SDS011;26317;44.894;20.286;2022-07-06T01:56:08;10.98;;;9.80;;
40611;SDS011;26317;44.894;20.286;2022-07-06T01:58:47;12.18;;;8.50;;
40611;SDS011;26317;44.894;20.286;2022-07-06T02:01:30;10.38;;;8.75;;
40611;SDS011;26317;44.894;20.286;2022-07-06T02:04:06;15.77;;;10.07;;
40611;SDS011;26317;44.894;20.286;2022-07-06T02:06:41;14.18;;;8.75;;
40611;SDS011;26317;44.894;20.286;2022-07-06T02:09:27;15.77;;;10.05;;
40611;SDS011;26317;44.894;20.286;2022-07-06T02:12:02;13.00;;;8.60;;
40611;SDS011;26317;44.894;20.286;2022-07-06T02:14:47;15.30;;;9.27;;
40611;SDS011;26317;44.894;20.286;2022-07-06T02:17:19;13.98;;;10.65;;
40611;SDS011;26317;44.894;20.286;2022-07-06T02:19:52;21.73;;;10.98;;
40611;SDS011;26317;44.894;20.286;2022-07-06T02:22:21;13.30;;;10.32;;
40611;SDS011;26317;44.894;20.286;2022-07-06T02:25:11;12.32;;;9.68;;
40611;SDS011;26317;44.894;20.286;2022-07-06T02:27:42;16.63;;;9.27;;
40611;SDS011;26317;44.894;20.286;2022-07-06T02:30:19;14.35;;;8.75;;
40611;SDS011;26317;44.894;20.286;2022-07-06T02:32:50;14.02;;;9.27;;
40611;SDS011;26317;44.894;20.286;2022-07-06T02:35:20;14.48;;;9.23;;
40611;SDS011;26317;44.894;20.286;2022-07-06T02:37:55;14.55;;;9.23;;
40611;SDS011;26317;44.894;20.286;2022-07-06T02:40:37;15.07;;;9.60;;
40611;SDS011;26317;44.894;20.286;2022-07-06T02:43:15;13.32;;;8.98;;
40611;SDS011;26317;44.894;20.286;2022-07-06T02:45:51;13.07;;;9.38;;
40611;SDS011;26317;44.894;20.286;2022-07-06T02:48:30;15.85;;;9.80;;
40611;SDS011;26317;44.894;20.286;2022-07-06T02:51:01;14.30;;;9.95;;
40611;SDS011;26317;44.894;20.286;2022-07-06T02:53:41;14.43;;;9.55;;
40611;SDS011;26317;44.894;20.286;2022-07-06T02:56:24;14.95;;;9.75;;
40611;SDS011;26317;44.894;20.286;2022-07-06T02:58:59;12.30;;;9.30;;
40611;SDS011;26317;44.894;20.286;2022-07-06T03:01:33;13.35;;;9.05;;
40611;SDS011;26317;44.894;20.286;2022-07-06T03:04:11;14.90;;;10.32;;
40611;SDS011;26317;44.894;20.286;2022-07-06T03:06:44;12.90;;;9.63;;
40611;SDS011;26317;44.894;20.286;2022-07-06T03:09:17;17.02;;;9.32;;
40611;SDS011;26317;44.894;20.286;2022-07-06T03:11:52;12.90;;;9.48;;
40611;SDS011;26317;44.894;20.286;2022-07-06T03:14:35;16.88;;;9.88;;
40611;SDS011;26317;44.894;20.286;2022-07-06T03:17:15;11.80;;;9.73;;
40611;SDS011;26317;44.894;20.286;2022-07-06T03:19:49;15.23;;;8.98;;
40611;SDS011;26317;44.894;20.286;2022-07-06T03:22:23;11.07;;;9.35;;
40611;SDS011;26317;44.894;20.286;2022-07-06T03:24:58;13.93;;;9.27;;
40611;SDS011;26317;44.894;20.286;2022-07-06T03:27:44;15.40;;;9.15;;
40611;SDS011;26317;44.894;20.286;2022-07-06T03:30:19;11.68;;;9.00;;
40611;SDS011;26317;44.894;20.286;2022-07-06T03:32:57;13.18;;;9.77;;
40611;SDS011;26317;44.894;20.286;2022-07-06T03:35:51;9.07;;;8.18;;
40611;SDS011;26317;44.894;20.286;2022-07-06T03:40:59;14.95;;;8.45;;
40611;SDS011;26317;44.894;20.286;2022-07-06T03:43:53;11.48;;;8.85;;
40611;SDS011;26317;44.894;20.286;2022-07-06T03:46:32;9.18;;;8.27;;
40611;SDS011;26317;44.894;20.286;2022-07-06T03:49:05;18.95;;;8.75;;
40611;SDS011;26317;44.894;20.286;2022-07-06T03:51:47;13.70;;;8.70;;
40611;SDS011;26317;44.894;20.286;2022-07-06T03:54:33;11.98;;;7.63;;
40611;SDS011;26317;44.894;20.286;2022-07-06T03:57:05;13.73;;;8.85;;
40611;SDS011;26317;44.894;20.286;2022-07-06T03:59:46;9.65;;;8.10;;
40611;SDS011;26317;44.894;20.286;2022-07-06T04:02:25;10.07;;;8.13;;
40611;SDS011;26317;44.894;20.286;2022-07-06T04:04:59;11.73;;;8.55;;
40611;SDS011;26317;44.894;20.286;2022-07-06T04:08:01;12.85;;;8.23;;
40611;SDS011;26317;44.894;20.286;2022-07-06T04:11:00;9.50;;;8.38;;
40611;SDS011;26317;44.894;20.286;2022-07-06T04:13:39;13.68;;;8.55;;
40611;SDS011;26317;44.894;20.286;2022-07-06T04:16:13;10.05;;;8.48;;
40611;SDS011;26317;44.894;20.286;2022-07-06T04:18:46;10.35;;;7.95;;
40611;SDS011;26317;44.894;20.286;2022-07-06T04:21:19;9.75;;;8.20;;
40611;SDS011;26317;44.894;20.286;2022-07-06T04:23:59;8.52;;;7.82;;
40611;SDS011;26317;44.894;20.286;2022-07-06T04:26:40;8.98;;;7.57;;
40611;SDS011;26317;44.894;20.286;2022-07-06T04:29:15;15.52;;;7.80;;
40611;SDS011;26317;44.894;20.286;2022-07-06T04:32:06;10.30;;;7.82;;
40611;SDS011;26317;44.894;20.286;2022-07-06T04:34:42;10.48;;;8.63;;
40611;SDS011;26317;44.894;20.286;2022-07-06T04:37:16;9.40;;;8.32;;
40611;SDS011;26317;44.894;20.286;2022-07-06T04:39:49;10.00;;;7.82;;
40611;SDS011;26317;44.894;20.286;2022-07-06T04:42:19;12.30;;;7.97;;
40611;SDS011;26317;44.894;20.286;2022-07-06T04:44:58;11.32;;;8.32;;
40611;SDS011;26317;44.894;20.286;2022-07-06T04:47:40;14.77;;;8.35;;
40611;SDS011;26317;44.894;20.286;2022-07-06T04:50:16;11.18;;;8.63;;
40611;SDS011;26317;44.894;20.286;2022-07-06T04:52:52;8.95;;;8.10;;
40611;SDS011;26317;44.894;20.286;2022-07-06T04:55:28;12.07;;;8.73;;
40611;SDS011;26317;44.894;20.286;2022-07-06T04:58:07;8.85;;;8.05;;
40611;SDS011;26317;44.894;20.286;2022-07-06T05:00:38;9.88;;;8.65;;
40611;SDS011;26317;44.894;20.286;2022-07-06T05:03:26;17.02;;;8.57;;
40611;SDS011;26317;44.894;20.286;2022-07-06T05:08:48;10.93;;;8.00;;
40611;SDS011;26317;44.894;20.286;2022-07-06T05:11:23;9.50;;;8.57;;
40611;SDS011;26317;44.894;20.286;2022-07-06T05:13:58;10.30;;;8.93;;
40611;SDS011;26317;44.894;20.286;2022-07-06T05:16:31;11.10;;;8.68;;
40611;SDS011;26317;44.894;20.286;2022-07-06T05:21:49;9.30;;;8.40;;
40611;SDS011;26317;44.894;20.286;2022-07-06T05:24:20;9.40;;;8.32;;
40611;SDS011;26317;44.894;20.286;2022-07-06T05:26:51;8.07;;;7.25;;
40611;SDS011;26317;44.894;20.286;2022-07-06T05:31:59;10.10;;;7.47;;
40611;SDS011;26317;44.894;20.286;2022-07-06T05:34:53;10.35;;;7.82;;
40611;SDS011;26317;44.894;20.286;2022-07-06T05:37:25;8.55;;;7.60;;
40611;SDS011;26317;44.894;20.286;2022-07-06T05:39:56;8.98;;;8.07;;
40611;SDS011;26317;44.894;20.286;2022-07-06T05:42:33;8.20;;;7.38;;
40611;SDS011;26317;44.894;20.286;2022-07-06T05:45:09;13.38;;;8.27;;
40611;SDS011;26317;44.894;20.286;2022-07-06T05:47:40;9.70;;;7.82;;
40611;SDS011;26317;44.894;20.286;2022-07-06T05:50:40;8.27;;;7.43;;
40611;SDS011;26317;44.894;20.286;2022-07-06T05:53:13;7.70;;;6.63;;
40611;SDS011;26317;44.894;20.286;2022-07-06T05:55:45;11.23;;;6.68;;
40611;SDS011;26317;44.894;20.286;2022-07-06T05:58:27;7.53;;;6.82;;
40611;SDS011;26317;44.894;20.286;2022-07-06T06:00:58;7.95;;;6.93;;
40611;SDS011;26317;44.894;20.286;2022-07-06T06:03:28;10.43;;;6.90;;
40611;SDS011;26317;44.894;20.286;2022-07-06T06:06:09;7.88;;;6.93;;
40611;SDS011;26317;44.894;20.286;2022-07-06T06:08:43;12.90;;;6.78;;
40611;SDS011;26317;44.894;20.286;2022-07-06T06:13:50;8.38;;;6.88;;
40611;SDS011;26317;44.894;20.286;2022-07-06T06:16:46;8.00;;;6.60;;
40611;SDS011;26317;44.894;20.286;2022-07-06T06:19:28;6.80;;;6.15;;
40611;SDS011;26317;44.894;20.286;2022-07-06T06:22:04;6.25;;;5.53;;
40611;SDS011;26317;44.894;20.286;2022-07-06T06:24:38;5.55;;;5.07;;
40611;SDS011;26317;44.894;20.286;2022-07-06T06:27:13;7.77;;;6.37;;
40611;SDS011;26317;44.894;20.286;2022-07-06T06:29:57;7.60;;;6.47;;
40611;SDS011;26317;44.894;20.286;2022-07-06T06:32:28;6.28;;;5.68;;
40611;SDS011;26317;44.894;20.286;2022-07-06T06:37:51;6.72;;;5.05;;
40611;SDS011;26317;44.894;20.286;2022-07-06T06:40:25;5.88;;;5.38;;
40611;SDS011;26317;44.894;20.286;2022-07-06T06:43:05;7.00;;;5.65;;
40611;SDS011;26317;44.894;20.286;2022-07-06T06:45:48;4.97;;;4.47;;
40611;SDS011;26317;44.894;20.286;2022-07-06T06:48:20;5.07;;;4.68;;
40611;SDS011;26317;44.894;20.286;2022-07-06T06:50:59;5.10;;;4.70;;
40611;SDS011;26317;44.894;20.286;2022-07-06T06:53:50;7.50;;;5.10;;
40611;SDS011;26317;44.894;20.286;2022-07-06T06:56:58;7.38;;;4.50;;
40611;SDS011;26317;44.894;20.286;2022-07-06T06:59:48;8.02;;;5.28;;
40611;SDS011;26317;44.894;20.286;2022-07-06T07:02:58;6.10;;;5.50;;
40611;SDS011;26317;44.894;20.286;2022-07-06T07:05:31;5.15;;;4.70;;
40611;SDS011;26317;44.894;20.286;2022-07-06T07:08:06;7.38;;;5.10;;
40611;SDS011;26317;44.894;20.286;2022-07-06T07:10:55;5.47;;;4.90;;
40611;SDS011;26317;44.894;20.286;2022-07-06T07:13:30;6.28;;;4.93;;
40611;SDS011;26317;44.894;20.286;2022-07-06T07:16:04;5.47;;;4.88;;
40611;SDS011;26317;44.894;20.286;2022-07-06T07:18:37;5.30;;;4.85;;
40611;SDS011;26317;44.894;20.286;2022-07-06T07:21:20;5.25;;;4.72;;
40611;SDS011;26317;44.894;20.286;2022-07-06T07:23:54;6.63;;;5.22;;
40611;SDS011;26317;44.894;20.286;2022-07-06T07:26:27;6.03;;;4.75;;
40611;SDS011;26317;44.894;20.286;2022-07-06T07:28:59;5.28;;;4.65;;
40611;SDS011;26317;44.894;20.286;2022-07-06T07:31:43;7.35;;;4.93;;
40611;SDS011;26317;44.894;20.286;2022-07-06T07:34:28;6.00;;;4.63;;
40611;SDS011;26317;44.894;20.286;2022-07-06T07:37:02;4.85;;;4.45;;
40611;SDS011;26317;44.894;20.286;2022-07-06T07:39:38;5.55;;;4.75;;
40611;SDS011;26317;44.894;20.286;2022-07-06T07:42:15;5.60;;;4.80;;
40611;SDS011;26317;44.894;20.286;2022-07-06T07:44:46;4.72;;;4.32;;
40611;SDS011;26317;44.894;20.286;2022-07-06T07:47:16;5.38;;;4.20;;
40611;SDS011;26317;44.894;20.286;2022-07-06T07:49:50;5.00;;;4.57;;
40611;SDS011;26317;44.894;20.286;2022-07-06T07:52:35;8.07;;;4.70;;
40611;SDS011;26317;44.894;20.286;2022-07-06T07:55:07;5.50;;;4.85;;
40611;SDS011;26317;44.894;20.286;2022-07-06T07:57:51;5.47;;;5.07;;
40611;SDS011;26317;44.894;20.286;2022-07-06T08:00:29;5.50;;;4.35;;
40611;SDS011;26317;44.894;20.286;2022-07-06T08:03:03;7.35;;;4.55;;
40611;SDS011;26317;44.894;20.286;2022-07-06T08:05:40;5.28;;;4.78;;
40611;SDS011;26317;44.894;20.286;2022-07-06T08:08:18;6.45;;;4.78;;
40611;SDS011;26317;44.894;20.286;2022-07-06T08:10:54;7.40;;;4.65;;
40611;SDS011;26317;44.894;20.286;2022-07-06T08:13:41;6.45;;;4.32;;
40611;SDS011;26317;44.894;20.286;2022-07-06T08:16:21;4.22;;;3.92;;
40611;SDS011;26317;44.894;20.286;2022-07-06T08:18:55;4.18;;;3.88;;
40611;SDS011;26317;44.894;20.286;2022-07-06T08:21:30;5.28;;;4.78;;
40611;SDS011;26317;44.894;20.286;2022-07-06T08:24:12;5.53;;;4.20;;
40611;SDS011;26317;44.894;20.286;2022-07-06T08:26:50;8.95;;;5.45;;
40611;SDS011;26317;44.894;20.286;2022-07-06T08:29:38;4.10;;;3.63;;
40611;SDS011;26317;44.894;20.286;2022-07-06T08:32:12;5.28;;;3.90;;
40611;SDS011;26317;44.894;20.286;2022-07-06T08:34:59;6.40;;;3.97;;
40611;SDS011;26317;44.894;20.286;2022-07-06T08:37:38;5.43;;;3.63;;
40611;SDS011;26317;44.894;20.286;2022-07-06T08:40:18;4.10;;;3.80;;
40611;SDS011;26317;44.894;20.286;2022-07-06T08:42:51;3.28;;;2.65;;
40611;SDS011;26317;44.894;20.286;2022-07-06T08:45:38;3.90;;;2.85;;
40611;SDS011;26317;44.894;20.286;2022-07-06T08:48:13;3.20;;;2.92;;
40611;SDS011;26317;44.894;20.286;2022-07-06T08:50:54;3.35;;;3.13;;
40611;SDS011;26317;44.894;20.286;2022-07-06T08:53:30;3.47;;;2.53;;
40611;SDS011;26317;44.894;20.286;2022-07-06T08:56:05;3.05;;;2.65;;
40611;SDS011;26317;44.894;20.286;2022-07-06T08:58:41;3.30;;;3.03;;
40611;SDS011;26317;44.894;20.286;2022-07-06T09:01:29;2.92;;;2.72;;
40611;SDS011;26317;44.894;20.286;2022-07-06T09:04:10;8.50;;;2.85;;
40611;SDS011;26317;44.894;20.286;2022-07-06T09:06:46;5.47;;;2.92;;
40611;SDS011;26317;44.894;20.286;2022-07-06T09:09:19;3.08;;;2.85;;
40611;SDS011;26317;44.894;20.286;2022-07-06T09:12:01;3.45;;;3.03;;
40611;SDS011;26317;44.894;20.286;2022-07-06T09:14:33;4.60;;;3.03;;
40611;SDS011;26317;44.894;20.286;2022-07-06T09:17:24;3.88;;;2.10;;
40611;SDS011;26317;44.894;20.286;2022-07-06T09:20:00;4.35;;;2.35;;
40611;SDS011;26317;44.894;20.286;2022-07-06T09:22:48;3.70;;;2.22;;
40611;SDS011;26317;44.894;20.286;2022-07-06T09:25:22;5.13;;;2.83;;
40611;SDS011;26317;44.894;20.286;2022-07-06T09:27:58;3.33;;;2.28;;
40611;SDS011;26317;44.894;20.286;2022-07-06T09:30:33;4.60;;;2.33;;
40611;SDS011;26317;44.894;20.286;2022-07-06T09:33:23;5.90;;;2.55;;
40611;SDS011;26317;44.894;20.286;2022-07-06T09:36:00;2.35;;;2.15;;
40611;SDS011;26317;44.894;20.286;2022-07-06T09:38:40;2.53;;;2.30;;
40611;SDS011;26317;44.894;20.286;2022-07-06T09:41:17;3.17;;;2.78;;
40611;SDS011;26317;44.894;20.286;2022-07-06T09:44:01;4.68;;;2.55;;
40611;SDS011;26317;44.894;20.286;2022-07-06T09:46:37;3.42;;;2.22;;
40611;SDS011;26317;44.894;20.286;2022-07-06T09:49:22;5.68;;;2.55;;
40611;SDS011;26317;44.894;20.286;2022-07-06T09:51:56;3.03;;;2.45;;
40611;SDS011;26317;44.894;20.286;2022-07-06T09:54:29;3.35;;;2.38;;
40611;SDS011;26317;44.894;20.286;2022-07-06T09:57:02;4.75;;;2.33;;
40611;SDS011;26317;44.894;20.286;2022-07-06T09:59:49;3.33;;;2.17;;
40611;SDS011;26317;44.894;20.286;2022-07-06T10:02:28;7.45;;;2.20;;
40611;SDS011;26317;44.894;20.286;2022-07-06T10:05:17;5.03;;;2.72;;
40611;SDS011;26317;44.894;20.286;2022-07-06T10:08:02;3.80;;;1.92;;
40611;SDS011;26317;44.894;20.286;2022-07-06T10:10:40;2.95;;;2.45;;
40611;SDS011;26317;44.894;20.286;2022-07-06T10:13:14;2.40;;;1.98;;
40611;SDS011;26317;44.894;20.286;2022-07-06T10:15:59;2.67;;;2.00;;
40611;SDS011;26317;44.894;20.286;2022-07-06T10:18:40;6.75;;;2.45;;
40611;SDS011;26317;44.894;20.286;2022-07-06T10:21:16;2.83;;;2.25;;
40611;SDS011;26317;44.894;20.286;2022-07-06T10:23:51;9.88;;;2.20;;
40611;SDS011;26317;44.894;20.286;2022-07-06T10:26:27;4.35;;;2.35;;
40611;SDS011;26317;44.894;20.286;2022-07-06T10:29:07;2.63;;;2.30;;
40611;SDS011;26317;44.894;20.286;2022-07-06T10:31:42;3.88;;;1.67;;
40611;SDS011;26317;44.894;20.286;2022-07-06T10:34:20;8.32;;;2.10;;
40611;SDS011;26317;44.894;20.286;2022-07-06T10:37:12;6.07;;;2.40;;
40611;SDS011;26317;44.894;20.286;2022-07-06T10:39:59;2.38;;;2.08;;
40611;SDS011;26317;44.894;20.286;2022-07-06T10:42:45;1.70;;;1.60;;
40611;SDS011;26317;44.894;20.286;2022-07-06T10:48:38;7.18;;;1.98;;
40611;SDS011;26317;44.894;20.286;2022-07-06T10:51:11;6.93;;;2.17;;
40611;SDS011;26317;44.894;20.286;2022-07-06T10:54:10;3.45;;;1.73;;
40611;SDS011;26317;44.894;20.286;2022-07-06T11:00:00;2.30;;;1.90;;
40611;SDS011;26317;44.894;20.286;2022-07-06T11:02:37;4.40;;;1.23;;
40611;SDS011;26317;44.894;20.286;2022-07-06T11:05:13;1.77;;;1.40;;
40611;SDS011;26317;44.894;20.286;2022-07-06T11:08:18;2.72;;;1.60;;
40611;SDS011;26317;44.894;20.286;2022-07-06T11:11:37;7.72;;;1.75;;
40611;SDS011;26317;44.894;20.286;2022-07-06T11:14:25;4.30;;;1.50;;
40611;SDS011;26317;44.894;20.286;2022-07-06T11:17:15;2.67;;;1.90;;
40611;SDS011;26317;44.894;20.286;2022-07-06T11:19:55;3.20;;;1.55;;
40611;SDS011;26317;44.894;20.286;2022-07-06T11:22:27;4.05;;;1.73;;
40611;SDS011;26317;44.894;20.286;2022-07-06T11:25:06;2.78;;;1.50;;
40611;SDS011;26317;44.894;20.286;2022-07-06T11:27:58;7.68;;;1.70;;
40611;SDS011;26317;44.894;20.286;2022-07-06T11:30:36;2.25;;;1.30;;
40611;SDS011;26317;44.894;20.286;2022-07-06T11:33:07;1.95;;;1.83;;
40611;SDS011;26317;44.894;20.286;2022-07-06T11:35:41;5.57;;;1.77;;
40611;SDS011;26317;44.894;20.286;2022-07-06T11:38:30;3.40;;;1.77;;
40611;SDS011;26317;44.894;20.286;2022-07-06T11:41:03;4.70;;;1.73;;
40611;SDS011;26317;44.894;20.286;2022-07-06T11:43:42;7.85;;;1.88;;
40611;SDS011;26317;44.894;20.286;2022-07-06T11:49:09;2.80;;;1.73;;
40611;SDS011;26317;44.894;20.286;2022-07-06T11:51:45;3.65;;;2.03;;
40611;SDS011;26317;44.894;20.286;2022-07-06T11:54:24;6.45;;;1.92;;
40611;SDS011;26317;44.894;20.286;2022-07-06T11:56:58;2.40;;;1.67;;
40611;SDS011;26317;44.894;20.286;2022-07-06T11:59:43;3.78;;;1.85;;
40611;SDS011;26317;44.894;20.286;2022-07-06T12:02:24;3.80;;;1.65;;
40611;SDS011;26317;44.894;20.286;2022-07-06T12:05:15;2.65;;;1.65;;
40611;SDS011;26317;44.894;20.286;2022-07-06T12:08:04;4.00;;;1.67;;
40611;SDS011;26317;44.894;20.286;2022-07-06T12:10:41;3.72;;;1.35;;
40611;SDS011;26317;44.894;20.286;2022-07-06T12:16:07;4.00;;;1.40;;
40611;SDS011;26317;44.894;20.286;2022-07-06T12:18:46;3.03;;;1.60;;
40611;SDS011;26317;44.894;20.286;2022-07-06T12:21:23;12.00;;;1.77;;
40611;SDS011;26317;44.894;20.286;2022-07-06T12:24:00;3.10;;;1.85;;
40611;SDS011;26317;44.894;20.286;2022-07-06T12:26:44;4.68;;;1.77;;
40611;SDS011;26317;44.894;20.286;2022-07-06T12:29:20;3.00;;;1.52;;
40611;SDS011;26317;44.894;20.286;2022-07-06T12:32:02;2.65;;;1.73;;
40611;SDS011;26317;44.894;20.286;2022-07-06T12:34:34;5.47;;;2.13;;
40611;SDS011;26317;44.894;20.286;2022-07-06T12:37:07;1.80;;;1.70;;
40611;SDS011;26317;44.894;20.286;2022-07-06T12:39:47;3.08;;;1.60;;
40611;SDS011;26317;44.894;20.286;2022-07-06T12:42:46;3.70;;;1.42;;
40611;SDS011;26317;44.894;20.286;2022-07-06T12:45:25;1.60;;;1.50;;
40611;SDS011;26317;44.894;20.286;2022-07-06T12:48:16;1.60;;;1.50;;
40611;SDS011;26317;44.894;20.286;2022-07-06T12:50:55;3.45;;;1.80;;
40611;SDS011;26317;44.894;20.286;2022-07-06T12:53:28;2.30;;;1.80;;
40611;SDS011;26317;44.894;20.286;2022-07-06T12:56:09;3.38;;;1.70;;
40611;SDS011;26317;44.894;20.286;2022-07-06T12:58:57;3.95;;;1.52;;
40611;SDS011;26317;44.894;20.286;2022-07-06T13:01:42;2.67;;;1.90;;
40611;SDS011;26317;44.894;20.286;2022-07-06T13:04:27;2.65;;;1.50;;
40611;SDS011;26317;44.894;20.286;2022-07-06T13:07:02;2.60;;;1.67;;
40611;SDS011;26317;44.894;20.286;2022-07-06T13:09:34;4.28;;;1.70;;
40611;SDS011;26317;44.894;20.286;2022-07-06T13:12:10;3.03;;;1.65;;
40611;SDS011;26317;44.894;20.286;2022-07-06T13:14:51;2.90;;;1.85;;
40611;SDS011;26317;44.894;20.286;2022-07-06T13:17:32;1.50;;;1.35;;
40611;SDS011;26317;44.894;20.286;2022-07-06T13:20:17;6.32;;;1.63;;
40611;SDS011;26317;44.894;20.286;2022-07-06T13:22:52;2.90;;;1.90;;
40611;SDS011;26317;44.894;20.286;2022-07-06T13:25:25;2.83;;;1.92;;
40611;SDS011;26317;44.894;20.286;2022-07-06T13:27:59;3.50;;;1.92;;
40611;SDS011;26317;44.894;20.286;2022-07-06T13:30:37;3.65;;;1.65;;
40611;SDS011;26317;44.894;20.286;2022-07-06T13:33:13;5.07;;;2.25;;
40611;SDS011;26317;44.894;20.286;2022-07-06T13:35:58;2.17;;;1.98;;
40611;SDS011;26317;44.894;20.286;2022-07-06T13:38:36;6.53;;;1.75;;
40611;SDS011;26317;44.894;20.286;2022-07-06T13:41:09;3.10;;;2.05;;
40611;SDS011;26317;44.894;20.286;2022-07-06T13:43:47;5.90;;;2.10;;
40611;SDS011;26317;44.894;20.286;2022-07-06T13:46:25;2.95;;;1.80;;
40611;SDS011;26317;44.894;20.286;2022-07-06T13:49:01;5.43;;;1.80;;
40611;SDS011;26317;44.894;20.286;2022-07-06T13:51:37;4.03;;;1.80;;
40611;SDS011;26317;44.894;20.286;2022-07-06T13:54:09;6.43;;;1.67;;
40611;SDS011;26317;44.894;20.286;2022-07-06T13:56:50;2.33;;;1.60;;
40611;SDS011;26317;44.894;20.286;2022-07-06T13:59:24;3.08;;;2.05;;
40611;SDS011;26317;44.894;20.286;2022-07-06T14:01:55;3.50;;;2.00;;
40611;SDS011;26317;44.894;20.286;2022-07-06T14:04:32;3.63;;;1.92;;
40611;SDS011;26317;44.894;20.286;2022-07-06T14:07:11;4.15;;;1.48;;
40611;SDS011;26317;44.894;20.286;2022-07-06T14:09:51;3.42;;;3.13;;
40611;SDS011;26317;44.894;20.286;2022-07-06T14:12:24;2.50;;;1.50;;
40611;SDS011;26317;44.894;20.286;2022-07-06T14:14:55;4.03;;;2.97;;
40611;SDS011;26317;44.894;20.286;2022-07-06T14:17:33;9.60;;;2.20;;
40611;SDS011;26317;44.894;20.286;2022-07-06T14:20:08;5.05;;;3.38;;
40611;SDS011;26317;44.894;20.286;2022-07-06T14:22:41;4.93;;;3.28;;
40611;SDS011;26317;44.894;20.286;2022-07-06T14:25:18;4.10;;;2.53;;
40611;SDS011;26317;44.894;20.286;2022-07-06T14:27:56;9.88;;;4.15;;
40611;SDS011;26317;44.894;20.286;2022-07-06T14:30:29;4.80;;;2.85;;
40611;SDS011;26317;44.894;20.286;2022-07-06T14:32:59;4.43;;;2.42;;
40611;SDS011;26317;44.894;20.286;2022-07-06T14:35:35;5.40;;;2.50;;
40611;SDS011;26317;44.894;20.286;2022-07-06T14:38:27;2.55;;;2.25;;
40611;SDS011;26317;44.894;20.286;2022-07-06T14:41:05;5.13;;;2.03;;
40611;SDS011;26317;44.894;20.286;2022-07-06T14:43:44;2.58;;;2.38;;
40611;SDS011;26317;44.894;20.286;2022-07-06T14:46:13;4.82;;;2.90;;
40611;SDS011;26317;44.894;20.286;2022-07-06T14:48:43;6.07;;;2.87;;
40611;SDS011;26317;44.894;20.286;2022-07-06T14:51:18;7.30;;;2.90;;
40611;SDS011;26317;44.894;20.286;2022-07-06T14:54:06;2.85;;;2.55;;
40611;SDS011;26317;44.894;20.286;2022-07-06T14:56:39;3.10;;;2.80;;
40611;SDS011;26317;44.894;20.286;2022-07-06T14:59:18;3.75;;;2.40;;
40611;SDS011;26317;44.894;20.286;2022-07-06T15:01:50;3.03;;;2.22;;
40611;SDS011;26317;44.894;20.286;2022-07-06T15:04:23;5.22;;;2.20;;
40611;SDS011;26317;44.894;20.286;2022-07-06T15:06:59;1.77;;;1.67;;
40611;SDS011;26317;44.894;20.286;2022-07-06T15:09:51;2.20;;;1.90;;
40611;SDS011;26317;44.894;20.286;2022-07-06T15:12:29;9.35;;;2.90;;
40611;SDS011;26317;44.894;20.286;2022-07-06T15:15:14;3.67;;;2.00;;
40611;SDS011;26317;44.894;20.286;2022-07-06T15:17:49;2.30;;;2.03;;
40611;SDS011;26317;44.894;20.286;2022-07-06T15:20:28;5.00;;;1.85;;
40611;SDS011;26317;44.894;20.286;2022-07-06T15:23:01;5.30;;;1.80;;
40611;SDS011;26317;44.894;20.286;2022-07-06T15:25:37;2.17;;;1.75;;
40611;SDS011;26317;44.894;20.286;2022-07-06T15:28:10;2.78;;;1.52;;
40611;SDS011;26317;44.894;20.286;2022-07-06T15:30:43;3.03;;;1.80;;
40611;SDS011;26317;44.894;20.286;2022-07-06T15:33:13;2.00;;;1.80;;
40611;SDS011;26317;44.894;20.286;2022-07-06T15:35:45;2.30;;;2.03;;
40611;SDS011;26317;44.894;20.286;2022-07-06T15:38:19;1.80;;;1.50;;
40611;SDS011;26317;44.894;20.286;2022-07-06T15:40:57;2.53;;;1.85;;
40611;SDS011;26317;44.894;20.286;2022-07-06T15:43:32;1.58;;;1.35;;
40611;SDS011;26317;44.894;20.286;2022-07-06T15:46:06;2.15;;;1.80;;
40611;SDS011;26317;44.894;20.286;2022-07-06T15:48:39;1.75;;;1.65;;
40611;SDS011;26317;44.894;20.286;2022-07-06T15:51:30;2.92;;;1.80;;
40611;SDS011;26317;44.894;20.286;2022-07-06T15:54:09;4.50;;;2.25;;
40611;SDS011;26317;44.894;20.286;2022-07-06T15:56:41;4.90;;;1.52;;
40611;SDS011;26317;44.894;20.286;2022-07-06T15:59:12;3.67;;;1.38;;
40611;SDS011;26317;44.894;20.286;2022-07-06T16:01:43;6.57;;;1.70;;
40611;SDS011;26317;44.894;20.286;2022-07-06T16:04:15;1.73;;;1.45;;
40611;SDS011;26317;44.894;20.286;2022-07-06T16:06:54;1.88;;;1.45;;
40611;SDS011;26317;44.894;20.286;2022-07-06T16:09:30;3.35;;;1.75;;